Time;durP1;ratioP1;P1;durP2;ratioP2;P2;SDS_P1;SDS_P2;PMS_P1;PMS_P2;Temp;Humidity;BMP_temperature;BMP_pressure;BME280_temperature;BME280_humidity;BME280_pressure;Samples;Min_cycle;Max_cycle;Signal;HPM_P1;HPM_P2
2023/03/19 00:00:55;;;;;;;1.60;1.50;;;12.40;99.90;;;;;;5000006;28;20463;-73
2023/03/19 00:03:24;;;;;;;2.53;1.43;;;12.30;99.90;;;;;;4980826;28;20849;-73
2023/03/19 00:05:53;;;;;;;2.17;1.50;;;12.40;99.90;;;;;;4986380;28;20452;-73
2023/03/19 00:08:21;;;;;;;1.40;1.30;;;12.30;99.90;;;;;;4991499;28;20472;-75
2023/03/19 00:10:54;;;;;;;2.40;1.60;;;12.30;99.90;;;;;;4999750;28;20542;-74
2023/03/19 00:13:22;;;;;;;3.13;1.50;;;12.30;99.90;;;;;;5002914;28;20482;-75
2023/03/19 00:15:50;;;;;;;1.77;1.60;;;12.40;99.90;;;;;;4976788;28;20860;-75
2023/03/19 00:18:19;;;;;;;2.70;1.60;;;12.30;99.90;;;;;;4977626;28;20834;-73
2023/03/19 00:20:47;;;;;;;1.80;1.10;;;12.30;99.90;;;;;;4991845;28;20541;-73
2023/03/19 00:23:15;;;;;;;1.40;1.30;;;12.30;99.90;;;;;;4996243;28;20470;-74
2023/03/19 00:25:44;;;;;;;2.90;1.80;;;12.30;99.90;;;;;;4993511;28;20473;-74
2023/03/19 00:28:14;;;;;;;1.47;1.33;;;12.30;99.90;;;;;;4996825;28;20567;-73
2023/03/19 00:30:43;;;;;;;2.70;1.93;;;12.30;99.90;;;;;;4980551;28;20803;-74
2023/03/19 00:33:12;;;;;;;2.30;1.40;;;12.30;99.90;;;;;;4999187;28;20960;-74
2023/03/19 00:35:41;;;;;;;2.23;1.53;;;12.30;99.90;;;;;;4998212;28;20565;-75
2023/03/19 00:38:09;;;;;;;1.83;1.73;;;12.30;99.90;;;;;;5001791;28;20475;-73
2023/03/19 00:40:41;;;;;;;1.93;1.67;;;12.30;99.90;;;;;;4996763;28;20474;-74
2023/03/19 00:43:10;;;;;;;1.40;1.30;;;12.30;99.90;;;;;;4988303;28;20456;-75
2023/03/19 00:45:40;;;;;;;2.23;1.60;;;12.30;99.90;;;;;;4978477;28;20503;-74
2023/03/19 00:48:09;;;;;;;2.43;1.97;;;12.30;99.90;;;;;;4994399;28;20592;-76
2023/03/19 00:50:37;;;;;;;1.67;1.40;;;12.30;99.90;;;;;;4995112;28;20450;-73
2023/03/19 00:53:05;;;;;;;1.47;1.30;;;12.30;99.90;;;;;;4991383;28;20452;-74
2023/03/19 00:55:34;;;;;;;1.50;1.40;;;12.30;99.90;;;;;;4997393;28;20473;-74
2023/03/19 00:58:03;;;;;;;1.80;1.70;;;12.30;99.90;;;;;;4993310;28;20501;-74
2023/03/19 01:00:31;;;;;;;1.80;1.50;;;12.30;99.90;;;;;;4994640;28;20487;-74
2023/03/19 01:03:01;;;;;;;2.83;2.30;;;12.30;99.90;;;;;;4986232;28;20419;-73
2023/03/19 01:05:30;;;;;;;2.13;1.93;;;12.30;99.90;;;;;;4998698;28;20466;-74
2023/03/19 01:07:59;;;;;;;2.33;1.83;;;12.30;99.90;;;;;;4993333;28;20459;-74
2023/03/19 01:10:27;;;;;;;2.50;1.73;;;12.30;99.90;;;;;;4977409;28;20899;-74
2023/03/19 01:12:56;;;;;;;2.13;1.80;;;12.30;99.90;;;;;;4999051;28;20483;-75
2023/03/19 01:15:24;;;;;;;1.87;1.63;;;12.30;99.90;;;;;;4982867;28;20555;-73
2023/03/19 01:17:52;;;;;;;2.60;1.80;;;12.30;99.90;;;;;;4992149;28;20513;-72
2023/03/19 01:20:23;;;;;;;1.80;1.60;;;12.30;99.90;;;;;;5001556;28;20477;-74
2023/03/19 01:22:52;;;;;;;2.37;1.80;;;12.20;99.90;;;;;;4994402;28;21205;-73
2023/03/19 01:25:20;;;;;;;2.70;1.67;;;12.30;99.90;;;;;;4991585;28;20455;-74
2023/03/19 01:28:09;;;;;;;1.63;1.33;;;12.30;99.90;;;;;;4970191;28;20467;-72
2023/03/19 01:30:39;;;;;;;2.33;1.80;;;12.20;99.90;;;;;;5000896;28;20959;-73
2023/03/19 01:33:14;;;;;;;2.00;1.67;;;12.30;99.90;;;;;;4980847;28;20962;-75
2023/03/19 01:36:01;;;;;;;2.57;1.60;;;12.30;99.90;;;;;;4973913;28;20469;-74
2023/03/19 01:38:35;;;;;;;2.40;2.00;;;12.30;99.90;;;;;;4973426;28;20509;-73
2023/03/19 01:41:07;;;;;;;1.97;1.73;;;12.30;99.90;;;;;;4973426;28;20476;-74
2023/03/19 01:43:36;;;;;;;3.77;1.83;;;12.20;99.90;;;;;;4976124;28;20458;-75
2023/03/19 01:46:17;;;;;;;1.77;1.67;;;12.20;99.90;;;;;;4976206;28;20456;-73
2023/03/19 01:49:14;;;;;;;2.23;1.60;;;12.30;99.90;;;;;;5001566;28;20498;-75
2023/03/19 01:51:49;;;;;;;1.90;1.53;;;12.20;99.90;;;;;;5002230;28;20521;-75
2023/03/19 01:54:35;;;;;;;4.70;1.70;;;12.20;99.90;;;;;;5003341;28;20809;-74
2023/03/19 01:57:17;;;;;;;2.20;1.43;;;12.20;99.90;;;;;;4990077;28;20513;-72
2023/03/19 02:00:11;;;;;;;2.13;1.57;;;12.20;99.90;;;;;;4968990;28;20784;-74
2023/03/19 02:02:49;;;;;;;2.03;1.53;;;12.20;99.90;;;;;;4987277;28;20458;-74
2023/03/19 02:05:31;;;;;;;3.80;1.30;;;12.20;99.90;;;;;;4993687;28;20600;-73
2023/03/19 02:08:09;;;;;;;2.50;1.30;;;12.20;99.90;;;;;;4989064;28;20803;-73
2023/03/19 02:10:37;;;;;;;2.50;1.40;;;12.20;99.90;;;;;;4996000;28;20538;-75
2023/03/19 02:13:06;;;;;;;2.23;1.30;;;12.20;99.90;;;;;;4991298;28;20436;-75
2023/03/19 02:15:34;;;;;;;1.30;1.20;;;12.20;99.90;;;;;;4986585;28;20473;-75
2023/03/19 02:18:05;;;;;;;2.20;1.60;;;12.20;99.90;;;;;;4988156;28;20519;-75
2023/03/19 02:20:37;;;;;;;1.40;1.17;;;12.20;99.90;;;;;;4991087;28;20489;-74
2023/03/19 02:23:15;;;;;;;2.10;1.03;;;12.20;99.90;;;;;;5000939;28;20950;-74
2023/03/19 02:26:01;;;;;;;1.63;1.53;;;12.20;99.90;;;;;;4993246;28;20936;-75
2023/03/19 02:28:31;;;;;;;3.80;1.20;;;12.20;99.90;;;;;;5004153;28;20470;-76
2023/03/19 02:31:00;;;;;;;2.10;1.33;;;12.20;99.90;;;;;;4979081;28;20505;-73
2023/03/19 02:33:30;;;;;;;3.53;1.57;;;12.20;99.90;;;;;;4989617;28;20801;-74
2023/03/19 02:35:59;;;;;;;1.43;1.30;;;12.20;99.90;;;;;;4999046;28;20534;-73
2023/03/19 02:38:32;;;;;;;3.80;1.10;;;12.20;99.90;;;;;;4987127;28;20463;-75
2023/03/19 02:41:03;;;;;;;1.60;1.40;;;12.20;99.90;;;;;;4998289;28;20482;-74
2023/03/19 02:43:33;;;;;;;2.10;1.33;;;12.20;99.90;;;;;;5004638;28;20804;-74
2023/03/19 02:46:03;;;;;;;1.97;1.53;;;12.20;99.90;;;;;;4981345;28;20478;-73
2023/03/19 02:48:32;;;;;;;1.10;1.00;;;12.20;99.90;;;;;;4986717;28;20579;-75
2023/03/19 02:51:00;;;;;;;1.33;1.17;;;12.20;99.90;;;;;;4991817;28;20836;-74
2023/03/19 02:53:29;;;;;;;1.30;1.20;;;12.20;99.90;;;;;;4999154;28;20448;-73
2023/03/19 02:55:57;;;;;;;2.03;1.50;;;12.20;99.90;;;;;;4984577;28;20445;-73
2023/03/19 02:58:27;;;;;;;2.27;1.53;;;12.20;99.90;;;;;;4982684;28;20572;-73
2023/03/19 03:00:55;;;;;;;1.23;1.10;;;12.20;99.90;;;;;;4981247;28;20479;-73
2023/03/19 03:03:24;;;;;;;1.77;1.27;;;12.20;99.90;;;;;;4987970;28;20455;-75
2023/03/19 03:05:52;;;;;;;1.50;1.23;;;12.20;99.90;;;;;;4995831;28;20451;-73
2023/03/19 03:08:21;;;;;;;2.53;1.57;;;12.20;99.90;;;;;;5000165;28;20471;-73
2023/03/19 03:10:50;;;;;;;1.90;1.53;;;12.20;99.90;;;;;;4983990;28;20455;-73
2023/03/19 03:13:18;;;;;;;2.67;1.20;;;12.20;99.90;;;;;;4973266;28;20447;-73
2023/03/19 03:15:48;;;;;;;1.93;1.53;;;12.20;99.90;;;;;;4997900;28;20472;-75
2023/03/19 03:18:18;;;;;;;1.20;1.10;;;12.10;99.90;;;;;;5004825;28;20471;-73
2023/03/19 03:20:46;;;;;;;2.00;1.40;;;12.10;99.90;;;;;;4987799;28;20482;-75
2023/03/19 03:23:15;;;;;;;1.83;1.47;;;12.10;99.90;;;;;;4986841;28;20454;-74
2023/03/19 03:25:45;;;;;;;1.43;1.30;;;12.20;99.90;;;;;;5002141;28;20532;-73
2023/03/19 03:28:13;;;;;;;1.33;1.03;;;12.10;99.90;;;;;;4988622;28;20973;-75
2023/03/19 03:30:42;;;;;;;2.60;1.00;;;12.20;99.90;;;;;;5003968;28;20439;-74
2023/03/19 03:33:11;;;;;;;1.83;1.20;;;12.10;99.90;;;;;;4989846;28;20655;-74
2023/03/19 03:35:40;;;;;;;3.00;1.60;;;12.10;99.90;;;;;;4974256;28;20493;-75
2023/03/19 03:38:08;;;;;;;1.40;0.90;;;12.10;99.90;;;;;;4983265;28;20470;-73
2023/03/19 03:40:37;;;;;;;2.37;1.30;;;12.10;99.90;;;;;;4980898;28;20896;-72
2023/03/19 03:43:05;;;;;;;1.63;1.17;;;12.10;99.90;;;;;;4981715;28;20542;-75
2023/03/19 03:45:35;;;;;;;1.30;1.10;;;12.10;99.90;;;;;;4981032;28;20463;-74
2023/03/19 03:48:04;;;;;;;2.30;1.83;;;12.10;99.90;;;;;;4966401;28;21053;-74
2023/03/19 03:50:36;;;;;;;1.10;0.90;;;12.10;99.90;;;;;;5005572;28;20442;-73
2023/03/19 03:53:10;;;;;;;1.73;1.30;;;12.10;99.90;;;;;;4977851;28;20510;-74
2023/03/19 03:55:40;;;;;;;1.73;1.00;;;12.10;99.90;;;;;;5001324;28;20521;-74
2023/03/19 03:58:08;;;;;;;1.57;1.40;;;12.10;99.90;;;;;;4981407;28;20465;-75
2023/03/19 04:00:37;;;;;;;1.23;1.13;;;12.10;99.90;;;;;;4983914;28;20552;-75
2023/03/19 04:03:05;;;;;;;1.10;1.00;;;12.10;99.90;;;;;;4992329;28;20875;-74
2023/03/19 04:05:36;;;;;;;2.53;1.40;;;12.10;99.90;;;;;;4971629;28;20844;-73
2023/03/19 04:08:07;;;;;;;1.20;1.10;;;12.10;99.90;;;;;;4986529;28;20470;-75
2023/03/19 04:10:36;;;;;;;1.33;1.23;;;12.10;99.90;;;;;;4988131;28;20839;-75
2023/03/19 04:13:04;;;;;;;1.70;1.40;;;12.10;99.90;;;;;;4986319;28;20440;-75
2023/03/19 04:15:33;;;;;;;1.30;1.10;;;12.10;99.90;;;;;;4977356;28;20524;-73
2023/03/19 04:18:02;;;;;;;2.20;1.00;;;12.10;99.90;;;;;;4987880;28;20469;-76
2023/03/19 04:20:32;;;;;;;1.53;1.03;;;12.10;99.90;;;;;;4981863;28;20837;-75
2023/03/19 04:23:02;;;;;;;1.67;1.20;;;12.10;99.90;;;;;;4984555;28;20855;-75
2023/03/19 04:25:30;;;;;;;1.70;1.40;;;12.10;99.90;;;;;;4970593;28;20460;-74
2023/03/19 04:27:59;;;;;;;1.33;1.23;;;12.10;99.90;;;;;;4998742;28;20487;-74
2023/03/19 04:30:29;;;;;;;1.17;1.00;;;12.10;99.90;;;;;;4978126;28;20771;-73
2023/03/19 04:33:00;;;;;;;1.47;1.37;;;12.10;99.90;;;;;;4977962;28;20498;-74
2023/03/19 04:35:29;;;;;;;1.50;1.30;;;12.10;99.90;;;;;;5002103;28;20439;-74
2023/03/19 04:37:57;;;;;;;1.83;1.23;;;12.00;99.90;;;;;;5001735;28;20463;-74
2023/03/19 04:40:28;;;;;;;1.43;1.03;;;12.00;99.90;;;;;;4999435;28;20896;-75
2023/03/19 04:42:56;;;;;;;1.00;0.90;;;12.10;99.90;;;;;;5001442;28;20447;-72
2023/03/19 04:45:36;;;;;;;1.27;0.93;;;12.10;99.90;;;;;;5001093;28;20441;-75
2023/03/19 04:48:06;;;;;;;1.00;0.90;;;12.10;99.90;;;;;;4986012;28;20505;-75
2023/03/19 04:50:36;;;;;;;1.57;1.20;;;12.10;99.90;;;;;;4995007;28;20900;-75
2023/03/19 04:53:05;;;;;;;1.57;1.10;;;12.00;99.90;;;;;;4975989;28;20442;-74
2023/03/19 04:55:35;;;;;;;2.20;1.43;;;12.10;99.90;;;;;;4998786;28;20458;-74
2023/03/19 04:58:13;;;;;;;1.33;1.20;;;12.00;99.90;;;;;;4978060;28;20474;-73
2023/03/19 05:00:45;;;;;;;2.97;1.40;;;12.00;99.90;;;;;;4988020;28;20497;-74
2023/03/19 05:03:19;;;;;;;1.03;0.93;;;12.10;99.90;;;;;;5002920;28;20951;-75
2023/03/19 05:05:48;;;;;;;1.63;1.20;;;12.10;99.90;;;;;;5002984;28;20465;-73
2023/03/19 05:08:20;;;;;;;1.07;0.93;;;12.00;99.90;;;;;;4998751;28;21009;-73
2023/03/19 05:10:50;;;;;;;1.40;1.10;;;12.00;99.90;;;;;;4981741;28;20488;-73
2023/03/19 05:13:19;;;;;;;0.97;0.87;;;12.00;99.90;;;;;;5002688;28;20446;-74
2023/03/19 05:15:54;;;;;;;2.30;1.40;;;12.00;99.90;;;;;;4995388;28;20474;-74
2023/03/19 05:18:23;;;;;;;1.10;1.00;;;12.00;99.90;;;;;;5004167;28;20998;-75
2023/03/19 05:20:52;;;;;;;0.80;0.70;;;12.00;99.90;;;;;;4989813;28;20473;-75
2023/03/19 05:23:23;;;;;;;1.60;1.10;;;12.00;99.90;;;;;;4997764;28;20510;-75
2023/03/19 05:26:05;;;;;;;1.17;1.00;;;12.00;99.90;;;;;;5000452;28;21264;-75
2023/03/19 05:28:52;;;;;;;2.10;0.87;;;12.00;99.90;;;;;;4985557;28;20473;-75
2023/03/19 05:31:28;;;;;;;1.50;1.30;;;12.00;99.90;;;;;;4997844;28;20534;-75
2023/03/19 05:33:57;;;;;;;1.40;1.00;;;12.00;99.90;;;;;;4982826;28;20452;-74
2023/03/19 05:36:25;;;;;;;1.20;1.00;;;12.00;99.90;;;;;;4986558;28;20472;-74
2023/03/19 05:39:02;;;;;;;1.33;1.23;;;12.00;99.90;;;;;;4997864;28;20466;-75
2023/03/19 05:41:37;;;;;;;1.57;1.27;;;12.00;99.90;;;;;;5004892;28;20501;-73
2023/03/19 05:44:07;;;;;;;1.53;1.17;;;12.00;99.90;;;;;;4989421;28;20438;-74
2023/03/19 05:46:49;;;;;;;0.90;0.80;;;12.00;99.90;;;;;;4997256;28;20501;-75
2023/03/19 05:49:20;;;;;;;1.77;1.10;;;12.00;99.90;;;;;;4999092;28;21022;-75
2023/03/19 05:51:49;;;;;;;1.30;1.07;;;12.00;99.90;;;;;;4999864;28;20481;-75
2023/03/19 05:54:18;;;;;;;1.33;1.13;;;12.00;99.90;;;;;;4992110;28;20454;-73
2023/03/19 05:57:08;;;;;;;1.37;1.27;;;12.00;99.90;;;;;;4981362;28;20462;-74
2023/03/19 05:59:45;;;;;;;1.30;1.00;;;12.00;99.90;;;;;;4987870;28;20447;-73
2023/03/19 06:02:25;;;;;;;1.33;0.97;;;12.00;99.90;;;;;;4981035;28;20483;-73
2023/03/19 06:05:07;;;;;;;1.90;1.10;;;12.00;99.90;;;;;;5005488;28;20785;-74
2023/03/19 06:07:36;;;;;;;1.67;1.00;;;12.00;99.90;;;;;;4978892;28;20481;-73
2023/03/19 06:10:10;;;;;;;1.30;1.07;;;12.00;99.90;;;;;;4996684;28;21037;-74
2023/03/19 06:12:40;;;;;;;1.80;1.10;;;12.00;99.90;;;;;;5001089;28;20477;-73
2023/03/19 06:15:41;;;;;;;1.63;1.17;;;12.00;99.90;;;;;;4970823;28;20868;-73
2023/03/19 06:18:33;;;;;;;1.40;1.30;;;11.90;99.90;;;;;;4981672;28;20834;-73
2023/03/19 06:21:06;;;;;;;1.77;1.13;;;11.90;99.90;;;;;;4996560;28;20442;-74
2023/03/19 06:23:35;;;;;;;0.93;0.70;;;11.90;99.90;;;;;;5001051;28;20512;-75
2023/03/19 06:26:06;;;;;;;1.50;1.40;;;12.00;99.90;;;;;;4993859;28;20470;-75
2023/03/19 06:28:44;;;;;;;1.63;0.90;;;11.90;99.90;;;;;;4993763;28;20520;-73
2023/03/19 06:31:13;;;;;;;2.00;1.43;;;11.90;99.90;;;;;;4996407;28;20469;-75
2023/03/19 06:34:18;;;;;;;1.57;1.00;;;11.90;99.90;;;;;;4976533;28;20569;-74
2023/03/19 06:36:46;;;;;;;1.00;0.87;;;11.90;99.90;;;;;;5002353;28;20502;-74
2023/03/19 06:39:17;;;;;;;1.50;1.10;;;11.90;99.90;;;;;;4994386;28;20542;-74
2023/03/19 06:41:45;;;;;;;1.37;1.10;;;11.90;99.90;;;;;;4998849;28;21368;-75
2023/03/19 06:44:19;;;;;;;1.23;0.87;;;11.90;99.90;;;;;;4995571;28;20964;-74
2023/03/19 06:46:48;;;;;;;1.73;0.80;;;11.90;99.90;;;;;;4995831;28;20517;-74
2023/03/19 06:49:16;;;;;;;1.87;1.20;;;11.90;99.90;;;;;;4987379;28;20509;-76
2023/03/19 06:51:45;;;;;;;2.10;1.00;;;11.90;99.90;;;;;;4983324;28;20458;-75
2023/03/19 06:54:14;;;;;;;1.50;1.30;;;11.90;99.90;;;;;;4997429;28;20462;-74
2023/03/19 06:56:42;;;;;;;1.50;1.40;;;11.90;99.90;;;;;;4985721;28;20473;-74
2023/03/19 06:59:11;;;;;;;1.30;1.00;;;11.90;99.90;;;;;;4999474;28;20465;-74
2023/03/19 07:01:42;;;;;;;1.20;1.10;;;11.90;99.90;;;;;;5001234;28;20466;-74
2023/03/19 07:04:10;;;;;;;0.80;0.70;;;11.90;99.90;;;;;;4981701;28;20443;-75
2023/03/19 07:06:39;;;;;;;1.20;1.00;;;11.90;99.90;;;;;;4984057;28;20502;-73
2023/03/19 07:09:07;;;;;;;0.83;0.70;;;11.90;99.90;;;;;;4998923;28;20456;-74
2023/03/19 07:11:36;;;;;;;1.93;1.83;;;11.90;99.90;;;;;;4996554;28;20478;-76
2023/03/19 07:14:05;;;;;;;1.20;1.03;;;11.90;99.90;;;;;;5000318;28;20458;-75
2023/03/19 07:16:33;;;;;;;1.13;1.03;;;11.90;99.90;;;;;;4977148;28;21017;-75
2023/03/19 07:19:03;;;;;;;1.80;1.20;;;11.90;99.90;;;;;;5003200;28;20477;-73
2023/03/19 07:21:32;;;;;;;1.20;0.87;;;11.90;99.90;;;;;;4990079;28;20490;-75
2023/03/19 07:24:00;;;;;;;1.53;1.30;;;11.90;99.90;;;;;;5003073;28;20497;-75
2023/03/19 07:26:28;;;;;;;1.27;1.17;;;11.90;99.90;;;;;;5002329;28;20466;-75
2023/03/19 07:28:57;;;;;;;1.40;1.20;;;11.90;99.90;;;;;;5002304;28;20477;-75
2023/03/19 07:31:25;;;;;;;1.03;0.90;;;11.90;99.90;;;;;;4994154;28;21060;-75
2023/03/19 07:33:53;;;;;;;1.00;0.90;;;11.90;99.90;;;;;;4997354;28;20440;-75
2023/03/19 07:36:23;;;;;;;1.30;0.87;;;11.90;99.90;;;;;;4996778;28;20463;-75
2023/03/19 07:38:51;;;;;;;1.50;1.10;;;11.90;99.90;;;;;;4980740;28;21052;-74
2023/03/19 07:41:20;;;;;;;1.47;1.10;;;11.90;99.90;;;;;;4992919;28;20462;-74
2023/03/19 07:43:49;;;;;;;1.50;1.40;;;11.90;99.90;;;;;;5002601;28;20564;-74
2023/03/19 07:46:17;;;;;;;1.47;1.13;;;11.90;99.90;;;;;;4980281;28;20512;-73
2023/03/19 07:48:46;;;;;;;1.13;0.93;;;11.90;99.90;;;;;;4992607;28;20869;-75
2023/03/19 07:51:14;;;;;;;1.33;1.20;;;11.90;99.90;;;;;;4983419;28;20565;-75
2023/03/19 07:53:44;;;;;;;1.07;0.80;;;11.90;99.90;;;;;;5003383;28;20531;-75
2023/03/19 07:56:13;;;;;;;1.60;1.30;;;11.90;99.90;;;;;;4992593;28;20854;-75
2023/03/19 07:58:41;;;;;;;0.97;0.77;;;11.90;99.90;;;;;;4985583;28;20478;-74
2023/03/19 08:01:10;;;;;;;1.43;1.10;;;11.90;99.90;;;;;;4993045;28;20453;-74
2023/03/19 08:03:39;;;;;;;1.67;1.03;;;11.90;99.90;;;;;;4999390;28;20977;-74
2023/03/19 08:06:07;;;;;;;1.00;0.90;;;11.90;99.90;;;;;;4990811;28;21386;-73
2023/03/19 08:08:36;;;;;;;1.37;0.90;;;11.90;99.90;;;;;;4984052;28;20993;-74
2023/03/19 08:11:07;;;;;;;0.93;0.80;;;11.90;99.90;;;;;;4980484;28;20647;-73
2023/03/19 08:13:35;;;;;;;1.00;0.80;;;11.80;99.90;;;;;;4980253;28;20931;-74
2023/03/19 08:16:04;;;;;;;1.10;0.83;;;11.90;99.90;;;;;;4989986;28;20465;-76
2023/03/19 08:18:33;;;;;;;1.10;0.90;;;11.80;99.90;;;;;;5027252;28;20493;-74
2023/03/19 08:21:01;;;;;;;1.23;0.93;;;11.80;99.90;;;;;;5002337;28;20536;-75
2023/03/19 08:23:29;;;;;;;1.17;0.83;;;11.80;99.90;;;;;;5003426;28;20557;-75
2023/03/19 08:25:58;;;;;;;0.83;0.83;;;11.90;99.90;;;;;;4992429;28;20466;-74
2023/03/19 08:28:28;;;;;;;1.10;1.00;;;11.80;99.90;;;;;;5002589;28;20582;-73
2023/03/19 08:30:56;;;;;;;1.27;1.10;;;11.90;99.90;;;;;;4979659;28;20856;-74
2023/03/19 08:33:25;;;;;;;1.00;0.80;;;11.80;99.90;;;;;;4998583;28;20429;-74
2023/03/19 08:35:53;;;;;;;1.37;1.07;;;11.80;99.90;;;;;;4977154;28;20451;-72
2023/03/19 08:38:22;;;;;;;0.97;0.80;;;11.80;99.90;;;;;;4997111;28;20463;-75
2023/03/19 08:40:50;;;;;;;1.00;0.90;;;11.90;99.90;;;;;;4983239;28;20510;-74
2023/03/19 08:43:18;;;;;;;0.90;0.80;;;11.90;99.90;;;;;;4998156;28;20470;-74
2023/03/19 08:45:49;;;;;;;1.03;0.80;;;11.90;99.90;;;;;;4992252;28;20540;-72
2023/03/19 08:48:18;;;;;;;0.80;0.70;;;11.90;99.90;;;;;;4971970;28;20551;-75
2023/03/19 08:50:51;;;;;;;1.27;1.17;;;11.90;99.90;;;;;;4981697;28;20450;-74
2023/03/19 08:53:20;;;;;;;1.20;0.90;;;11.90;99.90;;;;;;4989317;28;20442;-75
2023/03/19 08:55:52;;;;;;;1.77;1.17;;;11.90;99.90;;;;;;5005506;28;20507;-73
2023/03/19 08:58:20;;;;;;;0.90;0.67;;;11.90;99.90;;;;;;4997166;28;20477;-74
2023/03/19 09:00:50;;;;;;;2.07;0.90;;;11.90;99.90;;;;;;4979113;28;20446;-74
2023/03/19 09:03:20;;;;;;;2.50;1.00;;;11.90;99.90;;;;;;4977068;28;20471;-74
2023/03/19 09:05:48;;;;;;;1.27;1.10;;;12.00;99.90;;;;;;4981582;28;21220;-66
2023/03/19 09:08:17;;;;;;;1.27;1.17;;;12.00;99.90;;;;;;5004582;28;20475;-67
2023/03/19 09:10:45;;;;;;;1.67;1.07;;;12.00;99.90;;;;;;4998673;28;20435;-66
2023/03/19 09:13:14;;;;;;;1.03;0.90;;;12.00;99.90;;;;;;4996117;28;20510;-67
2023/03/19 09:15:42;;;;;;;1.27;1.00;;;12.00;99.90;;;;;;4978620;28;20541;-67
2023/03/19 09:18:12;;;;;;;1.33;0.80;;;12.00;99.90;;;;;;4991851;28;20490;-66
2023/03/19 09:20:41;;;;;;;0.80;0.60;;;12.00;99.90;;;;;;4986894;28;20954;-66
2023/03/19 09:23:10;;;;;;;1.23;1.00;;;12.00;99.90;;;;;;4995880;28;20468;-67
2023/03/19 09:25:39;;;;;;;0.73;0.70;;;12.00;99.90;;;;;;5001353;28;20503;-67
2023/03/19 09:28:07;;;;;;;1.13;0.90;;;12.00;99.90;;;;;;4986768;28;20471;-68
2023/03/19 09:30:36;;;;;;;1.07;0.93;;;12.00;99.90;;;;;;5000334;28;20536;-68
2023/03/19 09:33:04;;;;;;;1.30;0.77;;;12.00;99.90;;;;;;5002540;28;20483;-67
2023/03/19 09:35:37;;;;;;;1.13;1.00;;;12.00;99.90;;;;;;4984651;28;20807;-66
2023/03/19 09:38:05;;;;;;;1.20;1.00;;;12.00;99.90;;;;;;4995980;28;20492;-66
2023/03/19 09:40:37;;;;;;;1.00;0.80;;;12.00;99.90;;;;;;5000948;28;20869;-66
2023/03/19 09:43:34;;;;;;;1.53;1.00;;;12.00;99.90;;;;;;4981751;28;20473;-66
2023/03/19 09:46:09;;;;;;;1.00;0.70;;;12.00;99.90;;;;;;5001638;28;20541;-65
2023/03/19 09:48:43;;;;;;;1.03;0.80;;;12.00;99.90;;;;;;5000526;28;20484;-67
2023/03/19 09:51:21;;;;;;;0.70;0.67;;;12.00;99.90;;;;;;4997540;28;20568;-67
2023/03/19 09:53:53;;;;;;;0.97;0.80;;;12.00;99.90;;;;;;4996878;28;20906;-66
2023/03/19 09:56:23;;;;;;;1.13;1.03;;;12.00;99.90;;;;;;5004182;28;20630;-67
2023/03/19 09:58:52;;;;;;;0.93;0.83;;;12.00;99.90;;;;;;4997055;28;20892;-67
2023/03/19 10:01:30;;;;;;;0.80;0.80;;;12.00;99.90;;;;;;4981087;28;20478;-66
2023/03/19 10:04:30;;;;;;;1.00;0.90;;;12.00;99.90;;;;;;4988454;28;20472;-67
2023/03/19 10:07:08;;;;;;;1.03;0.93;;;12.00;99.90;;;;;;4980552;28;20548;-67
2023/03/19 10:09:47;;;;;;;1.00;0.90;;;12.00;99.90;;;;;;4980541;28;20447;-67
2023/03/19 10:12:26;;;;;;;1.53;1.17;;;12.00;99.90;;;;;;4993559;28;20487;-67
2023/03/19 10:15:08;;;;;;;1.10;0.80;;;11.90;99.90;;;;;;4999584;28;20496;-67
2023/03/19 10:17:40;;;;;;;1.83;0.87;;;11.90;99.90;;;;;;4997446;28;20518;-67
2023/03/19 10:20:17;;;;;;;1.27;0.93;;;11.90;99.90;;;;;;4989747;28;20519;-67
2023/03/19 10:22:51;;;;;;;0.87;0.87;;;12.00;99.90;;;;;;5000898;28;20845;-67
2023/03/19 10:25:22;;;;;;;0.80;0.73;;;12.00;99.90;;;;;;4998097;28;20463;-66
2023/03/19 10:28:07;;;;;;;1.17;1.00;;;11.90;99.90;;;;;;4981249;28;20482;-65
2023/03/19 10:30:37;;;;;;;1.20;0.80;;;12.00;99.90;;;;;;4986817;28;20445;-68
2023/03/19 10:33:16;;;;;;;1.30;0.90;;;12.00;99.90;;;;;;5004888;28;20437;-70
2023/03/19 10:35:48;;;;;;;1.03;0.93;;;11.90;99.90;;;;;;4996341;28;21530;-73
2023/03/19 10:38:21;;;;;;;2.83;0.90;;;11.90;99.90;;;;;;4979806;28;21071;-74
2023/03/19 10:41:03;;;;;;;1.40;0.80;;;11.90;99.90;;;;;;5001073;28;20485;-74
2023/03/19 10:43:33;;;;;;;1.37;1.00;;;11.90;99.90;;;;;;5004984;28;20473;-75
2023/03/19 10:46:02;;;;;;;1.00;0.90;;;12.00;99.90;;;;;;4979979;28;20459;-74
2023/03/19 10:48:32;;;;;;;1.03;0.70;;;11.90;99.90;;;;;;4998052;28;20518;-73
2023/03/19 10:51:03;;;;;;;0.90;0.70;;;11.90;99.90;;;;;;5003353;28;20978;-76
2023/03/19 10:53:34;;;;;;;0.87;0.60;;;12.00;99.90;;;;;;5003514;28;21201;-74
2023/03/19 10:56:05;;;;;;;1.47;0.70;;;11.90;99.90;;;;;;4999908;28;20850;-75
2023/03/19 10:58:35;;;;;;;1.53;1.03;;;12.00;99.90;;;;;;4984508;28;20844;-75
2023/03/19 11:01:06;;;;;;;0.90;0.60;;;12.00;99.90;;;;;;4996553;28;20830;-74
2023/03/19 11:03:37;;;;;;;0.80;0.70;;;11.90;99.90;;;;;;4996728;28;21017;-73
2023/03/19 11:06:17;;;;;;;1.73;0.80;;;12.00;99.90;;;;;;4998899;28;20833;-75
2023/03/19 11:08:55;;;;;;;0.70;0.67;;;12.00;99.90;;;;;;4992232;28;20505;-73
2023/03/19 11:11:33;;;;;;;1.23;1.10;;;12.00;99.90;;;;;;4991365;28;20529;-73
2023/03/19 11:14:10;;;;;;;1.10;0.77;;;12.00;99.90;;;;;;5001611;28;20525;-74
2023/03/19 11:16:55;;;;;;;0.83;0.70;;;12.00;99.90;;;;;;4977401;28;20515;-75
2023/03/19 11:19:26;;;;;;;0.90;0.80;;;12.00;99.90;;;;;;4979845;28;20469;-74
2023/03/19 11:22:09;;;;;;;1.57;0.90;;;12.00;99.90;;;;;;5000461;28;21065;-74
2023/03/19 11:24:41;;;;;;;0.90;0.70;;;11.90;99.90;;;;;;4979207;28;20528;-73
2023/03/19 11:27:12;;;;;;;1.13;1.00;;;12.00;99.90;;;;;;4977284;28;20854;-73
2023/03/19 11:29:42;;;;;;;1.10;0.80;;;11.90;99.90;;;;;;5002225;28;20427;-74
2023/03/19 11:32:38;;;;;;;0.70;0.50;;;12.00;99.90;;;;;;4994804;28;20524;-74
2023/03/19 11:35:12;;;;;;;0.80;0.70;;;12.00;99.90;;;;;;5001349;28;21002;-74
2023/03/19 11:37:53;;;;;;;0.90;0.80;;;12.00;99.90;;;;;;4987160;28;20473;-75
2023/03/19 11:40:32;;;;;;;0.97;0.70;;;11.90;99.90;;;;;;4993234;28;20453;-75
2023/03/19 11:43:37;;;;;;;1.90;1.00;;;12.00;99.90;;;;;;4990574;28;20980;-74
2023/03/19 11:46:15;;;;;;;0.90;0.57;;;12.00;99.90;;;;;;4960718;28;20907;-73
2023/03/19 11:49:06;;;;;;;1.23;0.70;;;12.00;99.90;;;;;;5004242;28;20465;-74
2023/03/19 11:51:42;;;;;;;0.90;0.80;;;12.00;99.90;;;;;;4997454;28;20471;-73
2023/03/19 11:54:21;;;;;;;0.93;0.73;;;12.00;99.90;;;;;;4984634;28;20451;-74
2023/03/19 11:56:56;;;;;;;0.90;0.70;;;12.00;99.90;;;;;;4973777;28;20494;-74
2023/03/19 11:59:49;;;;;;;0.97;0.60;;;12.00;99.90;;;;;;4995464;28;20475;-74
2023/03/19 12:02:50;;;;;;;1.10;0.87;;;12.00;99.90;;;;;;4980536;28;20471;-74
2023/03/19 12:05:23;;;;;;;0.83;0.80;;;12.00;99.90;;;;;;4994845;28;20466;-74
2023/03/19 12:08:05;;;;;;;0.90;0.50;;;12.00;99.90;;;;;;4998011;28;21057;-74
2023/03/19 12:10:59;;;;;;;0.70;0.60;;;12.10;99.90;;;;;;4995983;28;20479;-74
2023/03/19 12:13:44;;;;;;;0.80;0.50;;;12.10;99.90;;;;;;4986921;28;20873;-74
2023/03/19 12:16:27;;;;;;;2.17;0.90;;;12.10;99.90;;;;;;4968640;28;20590;-74
2023/03/19 12:19:13;;;;;;;0.80;0.63;;;12.10;99.90;;;;;;4975615;28;20832;-73
2023/03/19 12:21:52;;;;;;;0.93;0.50;;;12.10;99.90;;;;;;4991823;28;20486;-73
2023/03/19 12:24:28;;;;;;;1.20;0.60;;;12.00;99.90;;;;;;4996089;28;20476;-74
2023/03/19 12:27:05;;;;;;;0.93;0.77;;;12.10;99.90;;;;;;5000787;28;20535;-73
2023/03/19 12:29:45;;;;;;;1.10;0.70;;;12.00;99.90;;;;;;4995666;28;20446;-76
2023/03/19 12:32:31;;;;;;;0.90;0.60;;;12.00;99.90;;;;;;4980450;28;20541;-75
2023/03/19 12:35:04;;;;;;;0.80;0.70;;;12.00;99.90;;;;;;5000277;28;20440;-73
2023/03/19 12:37:37;;;;;;;0.83;0.70;;;12.00;99.90;;;;;;4992610;28;20497;-74
2023/03/19 12:40:15;;;;;;;0.70;0.60;;;12.00;99.90;;;;;;4986957;28;20979;-74
2023/03/19 12:42:44;;;;;;;1.00;0.60;;;12.00;99.90;;;;;;4987751;28;20493;-73
2023/03/19 12:45:26;;;;;;;1.27;0.77;;;12.00;99.90;;;;;;4986916;28;20533;-73
2023/03/19 12:48:00;;;;;;;1.20;0.80;;;12.00;99.90;;;;;;4999731;28;20500;-73
2023/03/19 12:50:31;;;;;;;0.87;0.70;;;12.00;99.90;;;;;;4979952;28;20463;-74
2023/03/19 12:53:01;;;;;;;1.60;0.53;;;12.00;99.90;;;;;;4995752;28;20503;-74
2023/03/19 12:55:37;;;;;;;0.87;0.50;;;12.00;99.90;;;;;;4980174;28;20446;-75
2023/03/19 12:58:14;;;;;;;0.80;0.50;;;12.00;99.90;;;;;;4975892;28;20462;-76
2023/03/19 13:00:51;;;;;;;1.13;0.60;;;12.00;99.90;;;;;;4991653;28;20447;-73
2023/03/19 13:03:27;;;;;;;0.83;0.67;;;12.00;99.90;;;;;;5000336;28;20974;-74
2023/03/19 13:06:03;;;;;;;0.70;0.60;;;12.00;99.90;;;;;;4997291;28;21064;-74
2023/03/19 13:08:37;;;;;;;0.80;0.60;;;12.00;99.90;;;;;;4999273;28;20623;-74
2023/03/19 13:11:11;;;;;;;0.90;0.63;;;12.00;99.90;;;;;;4997177;28;20451;-73
2023/03/19 13:13:48;;;;;;;0.90;0.60;;;12.00;99.90;;;;;;4983064;28;21023;-74
2023/03/19 13:16:33;;;;;;;0.80;0.60;;;12.00;99.90;;;;;;4995728;28;20913;-74